Starlake, Wisconsin
Current Conditions -  °F | °C
As of 12:15 PM on Thursday 30 Oct 2014 (Local Time) from KEGV Reporting Station
Overcast Overcast  
Wind Chill: 33°   Ceiling: 1600
Heat Index: 38°   Visibility: 10mi
Dew Point: 30°   Wind: 8mph
Humidity: 73%   Direction: 300°WNW
Pressure: 30.03"   Gusts: NA
Location:  46.0405°N, 89.4656°W
Report Text: KEGV 301715Z AUTO 30007KT 10SM OVC016 04/M01 A3003 RMK AO2 T00361009
Loading
Personal Weather Stations






























Interactive Weather Map
Tropical Storm Tracking
New forecast layout! Learn more

10-Day Weather Forecast

Advertisements
Track Severe Weather on mobile